This is the latest recevied weather packets stored in our database for station/object PY1LEO-13. If no packets are shown the sender has not sent any weather packets the latest 10 day(s).
| Time | Temp. | Humidity | Pressure | Rain* | Wind** | Luminosity | Snow |
|---|---|---|---|---|---|---|---|
| 1777373753 | 27.22° C | 74% | 1016.4 hPa | - | - | - | - |
| 1777373453 | 27.22° C | 74% | 1016.2 hPa | - | - | - | - |
| 1777373153 | 27.22° C | 74% | 1016.1 hPa | - | - | - | - |
| 1777372853 | 26.67° C | 74% | 1016 hPa | - | - | - | - |
| 1777372554 | 26.11° C | 77% | 1016 hPa | - | - | - | - |
| 1777372253 | 26.11° C | 78% | 1016 hPa | - | - | - | - |
| 1777371954 | 26.11° C | 78% | 1016 hPa | - | - | - | - |
| 1777371653 | 26.11° C | 77% | 1015.9 hPa | - | - | - | - |
| 1777371353 | 26.11° C | 77% | 1016 hPa | - | - | - | - |
| 1777371053 | 26.11° C | 77% | 1016 hPa | - | - | - | - |
| 1777370753 | 26.11° C | 76% | 1015.9 hPa | - | - | - | - |
| 1777370453 | 27.78° C | 69% | 1015.9 hPa | - | - | - | - |
| 1777370154 | 26.67° C | 73% | 1015.9 hPa | - | - | - | - |
| 1777355309 | 28.33° C | 66% | 1014.7 hPa | - | - | - | - |
| 1777355009 | 28.33° C | 65% | 1014.7 hPa | - | - | - | - |
| 1777354709 | 28.33° C | 65% | 1014.8 hPa | - | - | - | - |
| 1777354409 | 28.33° C | 65% | 1014.8 hPa | - | - | - | - |
| 1777354109 | 28.33° C | 64% | 1014.8 hPa | - | - | - | - |
| 1777353809 | 28.89° C | 64% | 1014.8 hPa | - | - | - | - |
| 1777353509 | 28.89° C | 65% | 1014.8 hPa | - | - | - | - |
| 1777353209 | 28.89° C | 65% | 1014.8 hPa | - | - | - | - |
| 1777352909 | 28.89° C | 65% | 1014.8 hPa | - | - | - | - |
| 1777352609 | 28.89° C | 65% | 1014.8 hPa | - | - | - | - |
| 1777352309 | 28.89° C | 65% | 1014.8 hPa | - | - | - | - |
| 1777352009 | 28.89° C | 65% | 1014.8 hPa | - | - | - | - |
* Rain since midnight (hover to see other rain measurements)
** Current wind speed in m/s (hover to see current wind gust speed)